Terminal Aerodrome Forecast
Issued by NWS

Home | Current Version | Previous Version | Text Only | Print | Product List | Glossary On
Versions: 1 2 3 4 5 6 7 8 9 10 11 12 13 14 15 16 17 18 19 20
000
FTUS41 KOKX 210800 AAB
TAFSWF
TAF AMD
KSWF 210830Z 2109/2212 VRB02KT P6SM BKN040 BKN100
     FM211400 16005KT P6SM SCT025 BKN040 BKN100
     FM220100 VRB03KT P6SM VCSH SCT020 BKN040
      TEMPO 2202/2206 4SM SHRA BR BKN020
     FM220600 10004KT P6SM SCT015 BKN030 PROB30 2206/2210 4SM -SHRA
      BR BKN015
      AMD NOT SKED=

USA.gov is the U.S. government's official web portal to all federal, state and local government web resources and services.